sensor_id;sensor_type;location;lat;lon;timestamp;P1;durP1;ratioP1;P2;durP2;ratioP2
60308;SDS011;50313;52.894;6.492;2024-03-22T00:00:54;23.33;;;11.30;;
60308;SDS011;50313;52.894;6.492;2024-03-22T00:03:20;23.83;;;11.68;;
60308;SDS011;50313;52.894;6.492;2024-03-22T00:05:45;23.35;;;9.95;;
60308;SDS011;50313;52.894;6.492;2024-03-22T00:08:11;22.15;;;10.80;;
60308;SDS011;50313;52.894;6.492;2024-03-22T00:10:37;21.52;;;9.57;;
60308;SDS011;50313;52.894;6.492;2024-03-22T00:13:03;28.20;;;11.32;;
60308;SDS011;50313;52.894;6.492;2024-03-22T00:15:29;27.02;;;12.93;;
60308;SDS011;50313;52.894;6.492;2024-03-22T00:17:55;27.17;;;11.63;;
60308;SDS011;50313;52.894;6.492;2024-03-22T00:20:20;23.13;;;11.50;;
60308;SDS011;50313;52.894;6.492;2024-03-22T00:22:46;27.70;;;11.80;;
60308;SDS011;50313;52.894;6.492;2024-03-22T00:25:12;27.25;;;11.77;;
60308;SDS011;50313;52.894;6.492;2024-03-22T00:27:38;22.23;;;10.93;;
60308;SDS011;50313;52.894;6.492;2024-03-22T00:30:04;25.55;;;11.50;;
60308;SDS011;50313;52.894;6.492;2024-03-22T00:32:30;26.80;;;13.38;;
60308;SDS011;50313;52.894;6.492;2024-03-22T00:34:56;34.65;;;12.57;;
60308;SDS011;50313;52.894;6.492;2024-03-22T00:37:22;29.45;;;13.02;;
60308;SDS011;50313;52.894;6.492;2024-03-22T00:39:47;27.23;;;13.10;;
60308;SDS011;50313;52.894;6.492;2024-03-22T00:42:13;30.83;;;14.13;;
60308;SDS011;50313;52.894;6.492;2024-03-22T00:44:39;27.58;;;14.57;;
60308;SDS011;50313;52.894;6.492;2024-03-22T00:47:05;29.98;;;14.75;;
60308;SDS011;50313;52.894;6.492;2024-03-22T00:49:31;29.52;;;14.63;;
60308;SDS011;50313;52.894;6.492;2024-03-22T00:51:57;36.85;;;13.80;;
60308;SDS011;50313;52.894;6.492;2024-03-22T00:54:23;32.50;;;14.23;;
60308;SDS011;50313;52.894;6.492;2024-03-22T00:56:48;24.15;;;12.43;;
60308;SDS011;50313;52.894;6.492;2024-03-22T00:59:14;31.50;;;13.82;;
60308;SDS011;50313;52.894;6.492;2024-03-22T01:01:41;30.95;;;13.52;;
60308;SDS011;50313;52.894;6.492;2024-03-22T01:04:07;26.95;;;13.32;;
60308;SDS011;50313;52.894;6.492;2024-03-22T01:06:34;33.47;;;15.13;;
60308;SDS011;50313;52.894;6.492;2024-03-22T01:09:00;32.97;;;15.30;;
60308;SDS011;50313;52.894;6.492;2024-03-22T01:11:26;27.48;;;12.93;;
60308;SDS011;50313;52.894;6.492;2024-03-22T01:13:51;34.72;;;14.20;;
60308;SDS011;50313;52.894;6.492;2024-03-22T01:16:17;30.75;;;14.10;;
60308;SDS011;50313;52.894;6.492;2024-03-22T01:18:43;35.70;;;16.20;;
60308;SDS011;50313;52.894;6.492;2024-03-22T01:21:09;36.97;;;14.95;;
60308;SDS011;50313;52.894;6.492;2024-03-22T01:23:34;34.83;;;14.32;;
60308;SDS011;50313;52.894;6.492;2024-03-22T01:26:00;37.78;;;15.98;;
60308;SDS011;50313;52.894;6.492;2024-03-22T01:28:26;39.90;;;16.88;;
60308;SDS011;50313;52.894;6.492;2024-03-22T01:30:52;31.63;;;14.05;;
60308;SDS011;50313;52.894;6.492;2024-03-22T01:33:18;35.65;;;15.90;;
60308;SDS011;50313;52.894;6.492;2024-03-22T01:35:43;29.98;;;13.07;;
60308;SDS011;50313;52.894;6.492;2024-03-22T01:38:09;37.15;;;15.52;;
60308;SDS011;50313;52.894;6.492;2024-03-22T01:40:35;33.72;;;15.50;;
60308;SDS011;50313;52.894;6.492;2024-03-22T01:43:01;34.20;;;14.40;;
60308;SDS011;50313;52.894;6.492;2024-03-22T01:45:27;35.50;;;15.75;;
60308;SDS011;50313;52.894;6.492;2024-03-22T01:47:58;33.00;;;12.43;;
60308;SDS011;50313;52.894;6.492;2024-03-22T01:50:24;35.05;;;15.18;;
60308;SDS011;50313;52.894;6.492;2024-03-22T01:52:51;34.03;;;14.57;;
60308;SDS011;50313;52.894;6.492;2024-03-22T01:55:17;37.63;;;15.73;;
60308;SDS011;50313;52.894;6.492;2024-03-22T01:57:43;37.58;;;15.45;;
60308;SDS011;50313;52.894;6.492;2024-03-22T02:00:09;33.33;;;15.93;;
60308;SDS011;50313;52.894;6.492;2024-03-22T02:02:36;38.17;;;14.55;;
60308;SDS011;50313;52.894;6.492;2024-03-22T02:07:57;27.13;;;13.35;;
60308;SDS011;50313;52.894;6.492;2024-03-22T02:10:22;36.65;;;16.42;;
60308;SDS011;50313;52.894;6.492;2024-03-22T02:12:48;37.53;;;16.48;;
60308;SDS011;50313;52.894;6.492;2024-03-22T02:15:14;41.22;;;15.13;;
60308;SDS011;50313;52.894;6.492;2024-03-22T02:17:40;34.83;;;15.65;;
60308;SDS011;50313;52.894;6.492;2024-03-22T02:20:06;34.47;;;17.65;;
60308;SDS011;50313;52.894;6.492;2024-03-22T02:22:33;41.97;;;16.48;;
60308;SDS011;50313;52.894;6.492;2024-03-22T02:32:21;38.13;;;16.02;;
60308;SDS011;50313;52.894;6.492;2024-03-22T02:34:47;37.90;;;17.42;;
60308;SDS011;50313;52.894;6.492;2024-03-22T02:37:13;39.08;;;17.23;;
60308;SDS011;50313;52.894;6.492;2024-03-22T02:39:38;32.00;;;15.57;;
60308;SDS011;50313;52.894;6.492;2024-03-22T02:42:04;36.15;;;15.65;;
60308;SDS011;50313;52.894;6.492;2024-03-22T02:44:30;45.00;;;17.08;;
60308;SDS011;50313;52.894;6.492;2024-03-22T02:46:56;35.30;;;17.77;;
60308;SDS011;50313;52.894;6.492;2024-03-22T02:49:22;37.22;;;16.73;;
60308;SDS011;50313;52.894;6.492;2024-03-22T02:51:48;39.53;;;16.55;;
60308;SDS011;50313;52.894;6.492;2024-03-22T02:54:13;38.10;;;16.50;;
60308;SDS011;50313;52.894;6.492;2024-03-22T02:56:39;41.70;;;15.00;;
60308;SDS011;50313;52.894;6.492;2024-03-22T02:59:05;37.42;;;15.30;;
60308;SDS011;50313;52.894;6.492;2024-03-22T03:01:31;39.10;;;16.35;;
60308;SDS011;50313;52.894;6.492;2024-03-22T03:03:57;40.85;;;17.38;;
60308;SDS011;50313;52.894;6.492;2024-03-22T03:06:23;41.05;;;17.08;;
60308;SDS011;50313;52.894;6.492;2024-03-22T03:08:49;33.20;;;14.70;;
60308;SDS011;50313;52.894;6.492;2024-03-22T03:11:15;41.42;;;16.05;;
60308;SDS011;50313;52.894;6.492;2024-03-22T03:13:41;36.60;;;16.10;;
60308;SDS011;50313;52.894;6.492;2024-03-22T03:16:07;45.08;;;17.67;;
60308;SDS011;50313;52.894;6.492;2024-03-22T03:18:32;35.78;;;11.93;;
60308;SDS011;50313;52.894;6.492;2024-03-22T03:20:58;46.70;;;16.35;;
60308;SDS011;50313;52.894;6.492;2024-03-22T03:23:24;38.60;;;16.38;;
60308;SDS011;50313;52.894;6.492;2024-03-22T03:25:50;43.63;;;15.75;;
60308;SDS011;50313;52.894;6.492;2024-03-22T03:28:16;34.83;;;15.27;;
60308;SDS011;50313;52.894;6.492;2024-03-22T03:30:41;39.05;;;16.40;;
60308;SDS011;50313;52.894;6.492;2024-03-22T03:33:07;44.60;;;14.98;;
60308;SDS011;50313;52.894;6.492;2024-03-22T03:35:33;45.08;;;15.63;;
60308;SDS011;50313;52.894;6.492;2024-03-22T03:37:59;42.55;;;18.83;;
60308;SDS011;50313;52.894;6.492;2024-03-22T03:40:24;35.90;;;16.77;;
60308;SDS011;50313;52.894;6.492;2024-03-22T03:42:51;40.42;;;14.88;;
60308;SDS011;50313;52.894;6.492;2024-03-22T03:45:17;34.13;;;15.43;;
60308;SDS011;50313;52.894;6.492;2024-03-22T03:47:43;35.08;;;14.73;;
60308;SDS011;50313;52.894;6.492;2024-03-22T03:50:09;44.67;;;17.45;;
60308;SDS011;50313;52.894;6.492;2024-03-22T03:52:34;34.45;;;16.85;;
60308;SDS011;50313;52.894;6.492;2024-03-22T03:55:00;44.60;;;17.50;;
60308;SDS011;50313;52.894;6.492;2024-03-22T03:57:26;48.05;;;16.70;;
60308;SDS011;50313;52.894;6.492;2024-03-22T03:59:52;38.40;;;17.35;;
60308;SDS011;50313;52.894;6.492;2024-03-22T04:02:18;40.50;;;15.98;;
60308;SDS011;50313;52.894;6.492;2024-03-22T04:04:44;42.30;;;16.52;;
60308;SDS011;50313;52.894;6.492;2024-03-22T04:07:10;41.50;;;16.02;;
60308;SDS011;50313;52.894;6.492;2024-03-22T04:09:35;46.92;;;15.57;;
60308;SDS011;50313;52.894;6.492;2024-03-22T04:12:01;36.05;;;16.50;;
60308;SDS011;50313;52.894;6.492;2024-03-22T04:14:27;44.17;;;18.08;;
60308;SDS011;50313;52.894;6.492;2024-03-22T04:16:53;37.45;;;14.65;;
60308;SDS011;50313;52.894;6.492;2024-03-22T04:19:20;35.05;;;15.90;;
60308;SDS011;50313;52.894;6.492;2024-03-22T04:21:46;42.00;;;16.27;;
60308;SDS011;50313;52.894;6.492;2024-03-22T04:24:13;39.40;;;15.82;;
60308;SDS011;50313;52.894;6.492;2024-03-22T04:26:39;36.55;;;14.82;;
60308;SDS011;50313;52.894;6.492;2024-03-22T04:29:05;45.55;;;15.05;;
60308;SDS011;50313;52.894;6.492;2024-03-22T04:31:31;33.70;;;13.52;;
60308;SDS011;50313;52.894;6.492;2024-03-22T04:33:56;39.33;;;14.63;;
60308;SDS011;50313;52.894;6.492;2024-03-22T04:36:22;30.70;;;14.57;;
60308;SDS011;50313;52.894;6.492;2024-03-22T04:38:48;38.33;;;14.40;;
60308;SDS011;50313;52.894;6.492;2024-03-22T04:41:14;37.28;;;13.50;;
60308;SDS011;50313;52.894;6.492;2024-03-22T04:43:40;32.45;;;12.98;;
60308;SDS011;50313;52.894;6.492;2024-03-22T04:46:06;40.63;;;14.60;;
60308;SDS011;50313;52.894;6.492;2024-03-22T04:48:31;40.38;;;14.57;;
60308;SDS011;50313;52.894;6.492;2024-03-22T04:50:57;35.45;;;12.25;;
60308;SDS011;50313;52.894;6.492;2024-03-22T04:53:23;33.45;;;13.43;;
60308;SDS011;50313;52.894;6.492;2024-03-22T04:55:49;44.17;;;15.25;;
60308;SDS011;50313;52.894;6.492;2024-03-22T04:58:16;41.58;;;13.75;;
60308;SDS011;50313;52.894;6.492;2024-03-22T05:00:44;31.23;;;13.73;;
60308;SDS011;50313;52.894;6.492;2024-03-22T05:03:10;28.30;;;12.95;;
60308;SDS011;50313;52.894;6.492;2024-03-22T05:05:37;45.55;;;13.48;;
60308;SDS011;50313;52.894;6.492;2024-03-22T05:08:04;41.35;;;12.60;;
60308;SDS011;50313;52.894;6.492;2024-03-22T05:10:31;44.08;;;14.70;;
60308;SDS011;50313;52.894;6.492;2024-03-22T05:12:57;29.45;;;12.50;;
60308;SDS011;50313;52.894;6.492;2024-03-22T05:15:23;42.63;;;14.57;;
60308;SDS011;50313;52.894;6.492;2024-03-22T05:17:53;36.58;;;12.90;;
60308;SDS011;50313;52.894;6.492;2024-03-22T05:20:21;31.85;;;13.00;;
60308;SDS011;50313;52.894;6.492;2024-03-22T05:22:47;26.33;;;10.82;;
60308;SDS011;50313;52.894;6.492;2024-03-22T05:25:13;28.77;;;12.30;;
60308;SDS011;50313;52.894;6.492;2024-03-22T05:27:40;43.63;;;15.57;;
60308;SDS011;50313;52.894;6.492;2024-03-22T05:30:07;32.70;;;12.82;;
60308;SDS011;50313;52.894;6.492;2024-03-22T05:32:37;39.78;;;14.85;;
60308;SDS011;50313;52.894;6.492;2024-03-22T05:35:03;33.10;;;13.13;;
60308;SDS011;50313;52.894;6.492;2024-03-22T05:37:29;31.00;;;13.15;;
60308;SDS011;50313;52.894;6.492;2024-03-22T05:39:55;43.17;;;15.00;;
60308;SDS011;50313;52.894;6.492;2024-03-22T05:42:21;38.88;;;13.48;;
60308;SDS011;50313;52.894;6.492;2024-03-22T05:44:47;34.30;;;13.07;;
60308;SDS011;50313;52.894;6.492;2024-03-22T05:47:13;32.47;;;12.30;;
60308;SDS011;50313;52.894;6.492;2024-03-22T05:49:39;29.65;;;11.05;;
60308;SDS011;50313;52.894;6.492;2024-03-22T05:52:05;36.13;;;13.43;;
60308;SDS011;50313;52.894;6.492;2024-03-22T05:54:31;35.05;;;13.45;;
60308;SDS011;50313;52.894;6.492;2024-03-22T05:56:57;32.30;;;13.13;;
60308;SDS011;50313;52.894;6.492;2024-03-22T05:59:22;30.75;;;11.35;;
60308;SDS011;50313;52.894;6.492;2024-03-22T06:01:48;28.80;;;10.80;;
60308;SDS011;50313;52.894;6.492;2024-03-22T06:04:14;23.88;;;8.82;;
60308;SDS011;50313;52.894;6.492;2024-03-22T06:06:40;27.23;;;10.57;;
60308;SDS011;50313;52.894;6.492;2024-03-22T06:09:06;21.88;;;10.52;;
60308;SDS011;50313;52.894;6.492;2024-03-22T06:11:36;28.73;;;12.80;;
60308;SDS011;50313;52.894;6.492;2024-03-22T06:14:02;28.15;;;11.45;;
60308;SDS011;50313;52.894;6.492;2024-03-22T06:16:28;29.95;;;14.05;;
60308;SDS011;50313;52.894;6.492;2024-03-22T06:18:54;22.90;;;11.00;;
60308;SDS011;50313;52.894;6.492;2024-03-22T06:21:20;37.78;;;13.50;;
60308;SDS011;50313;52.894;6.492;2024-03-22T06:23:49;44.65;;;12.52;;
60308;SDS011;50313;52.894;6.492;2024-03-22T06:26:15;26.55;;;10.55;;
60308;SDS011;50313;52.894;6.492;2024-03-22T06:28:41;35.00;;;11.45;;
60308;SDS011;50313;52.894;6.492;2024-03-22T06:31:07;22.25;;;9.55;;
60308;SDS011;50313;52.894;6.492;2024-03-22T06:33:33;32.67;;;12.13;;
60308;SDS011;50313;52.894;6.492;2024-03-22T06:35:59;22.98;;;10.52;;
60308;SDS011;50313;52.894;6.492;2024-03-22T06:38:25;24.88;;;7.93;;
60308;SDS011;50313;52.894;6.492;2024-03-22T06:40:51;25.02;;;11.23;;
60308;SDS011;50313;52.894;6.492;2024-03-22T06:43:17;19.30;;;9.60;;
60308;SDS011;50313;52.894;6.492;2024-03-22T06:45:43;26.30;;;9.68;;
60308;SDS011;50313;52.894;6.492;2024-03-22T06:48:09;19.58;;;8.75;;
60308;SDS011;50313;52.894;6.492;2024-03-22T06:50:34;26.50;;;11.40;;
60308;SDS011;50313;52.894;6.492;2024-03-22T06:53:00;33.00;;;12.25;;
60308;SDS011;50313;52.894;6.492;2024-03-22T06:55:26;29.50;;;9.50;;
60308;SDS011;50313;52.894;6.492;2024-03-22T06:57:57;31.67;;;10.27;;
60308;SDS011;50313;52.894;6.492;2024-03-22T07:00:23;31.73;;;10.85;;
60308;SDS011;50313;52.894;6.492;2024-03-22T07:02:48;23.80;;;10.50;;
60308;SDS011;50313;52.894;6.492;2024-03-22T07:05:15;31.42;;;9.82;;
60308;SDS011;50313;52.894;6.492;2024-03-22T07:07:40;22.33;;;10.35;;
60308;SDS011;50313;52.894;6.492;2024-03-22T07:10:06;19.02;;;9.32;;
60308;SDS011;50313;52.894;6.492;2024-03-22T07:12:32;24.02;;;11.32;;
60308;SDS011;50313;52.894;6.492;2024-03-22T07:15:02;18.98;;;9.10;;
60308;SDS011;50313;52.894;6.492;2024-03-22T07:17:28;19.80;;;9.20;;
60308;SDS011;50313;52.894;6.492;2024-03-22T07:19:54;19.73;;;9.15;;
60308;SDS011;50313;52.894;6.492;2024-03-22T07:22:21;26.30;;;10.15;;
60308;SDS011;50313;52.894;6.492;2024-03-22T07:24:47;22.70;;;8.57;;
60308;SDS011;50313;52.894;6.492;2024-03-22T07:27:14;37.72;;;10.90;;
60308;SDS011;50313;52.894;6.492;2024-03-22T07:29:40;21.92;;;8.90;;
60308;SDS011;50313;52.894;6.492;2024-03-22T07:32:06;23.58;;;8.70;;
60308;SDS011;50313;52.894;6.492;2024-03-22T07:34:32;17.63;;;7.47;;
60308;SDS011;50313;52.894;6.492;2024-03-22T07:36:58;21.50;;;8.48;;
60308;SDS011;50313;52.894;6.492;2024-03-22T07:39:24;18.90;;;6.95;;
60308;SDS011;50313;52.894;6.492;2024-03-22T07:41:50;25.27;;;8.35;;
60308;SDS011;50313;52.894;6.492;2024-03-22T07:44:16;17.92;;;8.60;;
60308;SDS011;50313;52.894;6.492;2024-03-22T07:46:43;17.42;;;7.97;;
60308;SDS011;50313;52.894;6.492;2024-03-22T07:49:10;15.02;;;6.72;;
60308;SDS011;50313;52.894;6.492;2024-03-22T07:51:39;13.55;;;6.28;;
60308;SDS011;50313;52.894;6.492;2024-03-22T07:54:05;12.93;;;5.85;;
60308;SDS011;50313;52.894;6.492;2024-03-22T07:56:31;16.50;;;7.55;;
60308;SDS011;50313;52.894;6.492;2024-03-22T07:58:57;22.15;;;7.28;;
60308;SDS011;50313;52.894;6.492;2024-03-22T08:01:23;17.48;;;6.22;;
60308;SDS011;50313;52.894;6.492;2024-03-22T08:03:49;21.45;;;6.90;;
60308;SDS011;50313;52.894;6.492;2024-03-22T08:06:16;27.67;;;8.98;;
60308;SDS011;50313;52.894;6.492;2024-03-22T08:08:43;26.45;;;7.38;;
60308;SDS011;50313;52.894;6.492;2024-03-22T08:11:08;15.02;;;7.50;;
60308;SDS011;50313;52.894;6.492;2024-03-22T08:13:34;41.78;;;7.85;;
60308;SDS011;50313;52.894;6.492;2024-03-22T08:16:00;24.00;;;6.75;;
60308;SDS011;50313;52.894;6.492;2024-03-22T08:18:27;11.13;;;5.45;;
60308;SDS011;50313;52.894;6.492;2024-03-22T08:20:52;25.13;;;8.25;;
60308;SDS011;50313;52.894;6.492;2024-03-22T08:23:18;17.70;;;6.60;;
60308;SDS011;50313;52.894;6.492;2024-03-22T08:25:45;22.90;;;6.22;;
60308;SDS011;50313;52.894;6.492;2024-03-22T08:28:11;19.95;;;7.40;;
60308;SDS011;50313;52.894;6.492;2024-03-22T08:30:38;15.98;;;6.93;;
60308;SDS011;50313;52.894;6.492;2024-03-22T08:33:04;23.17;;;7.72;;
60308;SDS011;50313;52.894;6.492;2024-03-22T08:35:30;21.30;;;6.43;;
60308;SDS011;50313;52.894;6.492;2024-03-22T08:37:56;20.33;;;8.15;;
60308;SDS011;50313;52.894;6.492;2024-03-22T08:40:23;15.43;;;6.35;;
60308;SDS011;50313;52.894;6.492;2024-03-22T08:42:49;11.52;;;5.78;;
60308;SDS011;50313;52.894;6.492;2024-03-22T08:45:15;15.82;;;7.90;;
60308;SDS011;50313;52.894;6.492;2024-03-22T08:47:42;21.27;;;7.32;;
60308;SDS011;50313;52.894;6.492;2024-03-22T08:50:10;25.48;;;6.95;;
60308;SDS011;50313;52.894;6.492;2024-03-22T08:52:36;21.92;;;7.22;;
60308;SDS011;50313;52.894;6.492;2024-03-22T08:55:03;9.32;;;5.78;;
60308;SDS011;50313;52.894;6.492;2024-03-22T08:57:31;6.93;;;4.45;;
60308;SDS011;50313;52.894;6.492;2024-03-22T08:59:57;21.25;;;8.43;;
60308;SDS011;50313;52.894;6.492;2024-03-22T09:02:23;15.70;;;5.63;;
60308;SDS011;50313;52.894;6.492;2024-03-22T09:04:50;17.85;;;6.72;;
60308;SDS011;50313;52.894;6.492;2024-03-22T09:07:16;24.73;;;7.75;;
60308;SDS011;50313;52.894;6.492;2024-03-22T09:09:42;24.27;;;6.88;;
60308;SDS011;50313;52.894;6.492;2024-03-22T09:12:08;16.83;;;6.05;;
60308;SDS011;50313;52.894;6.492;2024-03-22T09:14:34;19.63;;;6.10;;
60308;SDS011;50313;52.894;6.492;2024-03-22T09:17:00;17.27;;;7.05;;
60308;SDS011;50313;52.894;6.492;2024-03-22T09:19:26;13.65;;;6.22;;
60308;SDS011;50313;52.894;6.492;2024-03-22T09:21:51;20.33;;;6.70;;
60308;SDS011;50313;52.894;6.492;2024-03-22T09:24:17;13.52;;;6.00;;
60308;SDS011;50313;52.894;6.492;2024-03-22T09:26:43;11.07;;;5.22;;
60308;SDS011;50313;52.894;6.492;2024-03-22T09:29:09;12.48;;;7.93;;
60308;SDS011;50313;52.894;6.492;2024-03-22T09:31:35;14.13;;;5.60;;
60308;SDS011;50313;52.894;6.492;2024-03-22T09:34:00;22.13;;;5.47;;
60308;SDS011;50313;52.894;6.492;2024-03-22T09:36:26;10.45;;;6.03;;
60308;SDS011;50313;52.894;6.492;2024-03-22T09:38:52;15.60;;;4.82;;
60308;SDS011;50313;52.894;6.492;2024-03-22T09:41:23;12.50;;;5.53;;
60308;SDS011;50313;52.894;6.492;2024-03-22T09:43:55;10.97;;;3.93;;
60308;SDS011;50313;52.894;6.492;2024-03-22T09:46:23;7.40;;;5.05;;
60308;SDS011;50313;52.894;6.492;2024-03-22T09:48:50;11.25;;;4.75;;
60308;SDS011;50313;52.894;6.492;2024-03-22T09:51:18;8.68;;;4.15;;
60308;SDS011;50313;52.894;6.492;2024-03-22T09:53:46;9.35;;;4.78;;
60308;SDS011;50313;52.894;6.492;2024-03-22T09:56:13;21.52;;;5.30;;
60308;SDS011;50313;52.894;6.492;2024-03-22T09:58:43;7.63;;;4.30;;
60308;SDS011;50313;52.894;6.492;2024-03-22T10:01:10;13.80;;;4.50;;
60308;SDS011;50313;52.894;6.492;2024-03-22T10:03:37;9.82;;;4.40;;
60308;SDS011;50313;52.894;6.492;2024-03-22T10:06:03;12.43;;;5.10;;
60308;SDS011;50313;52.894;6.492;2024-03-22T10:08:29;12.32;;;4.63;;
60308;SDS011;50313;52.894;6.492;2024-03-22T10:10:55;6.78;;;4.20;;
60308;SDS011;50313;52.894;6.492;2024-03-22T10:13:22;5.68;;;3.83;;
60308;SDS011;50313;52.894;6.492;2024-03-22T10:15:48;7.70;;;3.75;;
60308;SDS011;50313;52.894;6.492;2024-03-22T10:18:14;8.50;;;3.55;;
60308;SDS011;50313;52.894;6.492;2024-03-22T10:20:40;8.60;;;3.30;;
60308;SDS011;50313;52.894;6.492;2024-03-22T10:23:07;7.63;;;3.08;;
60308;SDS011;50313;52.894;6.492;2024-03-22T10:25:34;8.13;;;4.07;;
60308;SDS011;50313;52.894;6.492;2024-03-22T10:28:00;8.85;;;4.03;;
60308;SDS011;50313;52.894;6.492;2024-03-22T10:30:25;3.72;;;2.63;;
60308;SDS011;50313;52.894;6.492;2024-03-22T10:32:52;7.05;;;3.83;;
60308;SDS011;50313;52.894;6.492;2024-03-22T10:35:18;7.63;;;3.65;;
60308;SDS011;50313;52.894;6.492;2024-03-22T10:37:44;2.30;;;2.10;;
60308;SDS011;50313;52.894;6.492;2024-03-22T10:40:10;4.18;;;2.00;;
60308;SDS011;50313;52.894;6.492;2024-03-22T10:42:37;5.50;;;2.25;;
60308;SDS011;50313;52.894;6.492;2024-03-22T10:45:07;4.40;;;1.58;;
60308;SDS011;50313;52.894;6.492;2024-03-22T10:47:35;9.07;;;3.17;;
60308;SDS011;50313;52.894;6.492;2024-03-22T10:52:38;9.18;;;3.05;;
60308;SDS011;50313;52.894;6.492;2024-03-22T10:55:06;4.40;;;2.55;;
60308;SDS011;50313;52.894;6.492;2024-03-22T10:57:35;4.15;;;2.38;;
60308;SDS011;50313;52.894;6.492;2024-03-22T11:00:08;4.10;;;2.05;;
60308;SDS011;50313;52.894;6.492;2024-03-22T11:02:37;5.55;;;2.90;;
60308;SDS011;50313;52.894;6.492;2024-03-22T11:05:04;5.30;;;2.67;;
60308;SDS011;50313;52.894;6.492;2024-03-22T11:07:31;2.67;;;1.80;;
60308;SDS011;50313;52.894;6.492;2024-03-22T11:09:57;4.00;;;2.33;;
60308;SDS011;50313;52.894;6.492;2024-03-22T11:12:26;2.97;;;2.00;;
60308;SDS011;50313;52.894;6.492;2024-03-22T11:14:53;6.00;;;3.38;;
60308;SDS011;50313;52.894;6.492;2024-03-22T11:17:19;2.63;;;1.40;;
60308;SDS011;50313;52.894;6.492;2024-03-22T11:19:50;4.10;;;2.35;;
60308;SDS011;50313;52.894;6.492;2024-03-22T11:22:17;4.18;;;1.88;;
60308;SDS011;50313;52.894;6.492;2024-03-22T11:24:43;1.52;;;1.13;;
60308;SDS011;50313;52.894;6.492;2024-03-22T11:27:10;4.22;;;2.28;;
60308;SDS011;50313;52.894;6.492;2024-03-22T11:29:36;2.30;;;1.42;;
60308;SDS011;50313;52.894;6.492;2024-03-22T11:32:10;1.38;;;1.23;;
60308;SDS011;50313;52.894;6.492;2024-03-22T11:34:37;2.47;;;1.25;;
60308;SDS011;50313;52.894;6.492;2024-03-22T11:37:07;2.03;;;1.20;;
60308;SDS011;50313;52.894;6.492;2024-03-22T11:39:38;2.70;;;1.58;;
60308;SDS011;50313;52.894;6.492;2024-03-22T11:42:05;3.67;;;2.00;;
60308;SDS011;50313;52.894;6.492;2024-03-22T11:44:33;2.80;;;2.38;;
60308;SDS011;50313;52.894;6.492;2024-03-22T11:47:01;3.15;;;1.73;;
60308;SDS011;50313;52.894;6.492;2024-03-22T11:49:28;4.97;;;2.13;;
60308;SDS011;50313;52.894;6.492;2024-03-22T11:51:55;3.22;;;1.88;;
60308;SDS011;50313;52.894;6.492;2024-03-22T11:54:22;4.07;;;1.90;;
60308;SDS011;50313;52.894;6.492;2024-03-22T11:56:48;2.78;;;1.63;;
60308;SDS011;50313;52.894;6.492;2024-03-22T11:59:15;1.90;;;1.27;;
60308;SDS011;50313;52.894;6.492;2024-03-22T12:01:44;1.85;;;1.50;;
60308;SDS011;50313;52.894;6.492;2024-03-22T12:04:10;4.25;;;1.73;;
60308;SDS011;50313;52.894;6.492;2024-03-22T12:06:43;4.90;;;1.98;;
60308;SDS011;50313;52.894;6.492;2024-03-22T12:09:10;4.82;;;1.35;;
60308;SDS011;50313;52.894;6.492;2024-03-22T12:11:39;2.92;;;1.70;;
60308;SDS011;50313;52.894;6.492;2024-03-22T12:14:05;1.10;;;1.00;;
60308;SDS011;50313;52.894;6.492;2024-03-22T12:16:31;1.13;;;1.02;;
60308;SDS011;50313;52.894;6.492;2024-03-22T12:18:57;7.22;;;1.38;;
60308;SDS011;50313;52.894;6.492;2024-03-22T12:21:23;2.58;;;1.38;;
60308;SDS011;50313;52.894;6.492;2024-03-22T12:23:50;3.72;;;1.08;;
60308;SDS011;50313;52.894;6.492;2024-03-22T12:26:15;3.10;;;1.02;;
60308;SDS011;50313;52.894;6.492;2024-03-22T12:28:41;1.35;;;1.08;;
60308;SDS011;50313;52.894;6.492;2024-03-22T12:31:08;1.23;;;0.57;;
60308;SDS011;50313;52.894;6.492;2024-03-22T12:33:35;2.22;;;1.48;;
60308;SDS011;50313;52.894;6.492;2024-03-22T12:36:02;1.33;;;0.90;;
60308;SDS011;50313;52.894;6.492;2024-03-22T12:38:29;2.65;;;1.40;;
60308;SDS011;50313;52.894;6.492;2024-03-22T12:40:55;1.35;;;1.25;;
60308;SDS011;50313;52.894;6.492;2024-03-22T12:43:21;4.25;;;0.93;;
60308;SDS011;50313;52.894;6.492;2024-03-22T12:45:47;5.25;;;1.85;;
60308;SDS011;50313;52.894;6.492;2024-03-22T12:48:13;3.17;;;0.93;;
60308;SDS011;50313;52.894;6.492;2024-03-22T12:50:39;3.40;;;1.27;;
60308;SDS011;50313;52.894;6.492;2024-03-22T12:53:04;1.42;;;1.00;;
60308;SDS011;50313;52.894;6.492;2024-03-22T12:55:30;9.77;;;1.75;;
60308;SDS011;50313;52.894;6.492;2024-03-22T12:57:57;2.25;;;0.98;;
60308;SDS011;50313;52.894;6.492;2024-03-22T13:00:23;6.15;;;1.20;;
60308;SDS011;50313;52.894;6.492;2024-03-22T13:02:49;4.60;;;1.45;;
60308;SDS011;50313;52.894;6.492;2024-03-22T13:05:15;3.53;;;2.08;;
60308;SDS011;50313;52.894;6.492;2024-03-22T13:07:41;3.72;;;1.10;;
60308;SDS011;50313;52.894;6.492;2024-03-22T13:10:07;1.88;;;1.30;;
60308;SDS011;50313;52.894;6.492;2024-03-22T13:12:34;3.60;;;1.92;;
60308;SDS011;50313;52.894;6.492;2024-03-22T13:15:00;2.20;;;1.42;;
60308;SDS011;50313;52.894;6.492;2024-03-22T13:17:27;2.92;;;1.60;;
60308;SDS011;50313;52.894;6.492;2024-03-22T13:19:52;5.68;;;1.55;;
60308;SDS011;50313;52.894;6.492;2024-03-22T13:22:18;11.73;;;2.22;;
60308;SDS011;50313;52.894;6.492;2024-03-22T13:24:45;3.08;;;1.85;;
60308;SDS011;50313;52.894;6.492;2024-03-22T13:27:11;1.75;;;1.63;;
60308;SDS011;50313;52.894;6.492;2024-03-22T13:29:38;7.70;;;1.52;;
60308;SDS011;50313;52.894;6.492;2024-03-22T13:32:05;2.30;;;1.42;;
60308;SDS011;50313;52.894;6.492;2024-03-22T13:34:35;6.07;;;2.30;;
60308;SDS011;50313;52.894;6.492;2024-03-22T13:37:02;6.45;;;1.85;;
60308;SDS011;50313;52.894;6.492;2024-03-22T13:39:28;4.75;;;1.70;;
60308;SDS011;50313;52.894;6.492;2024-03-22T13:41:57;4.15;;;2.80;;
60308;SDS011;50313;52.894;6.492;2024-03-22T13:44:23;9.20;;;1.88;;
60308;SDS011;50313;52.894;6.492;2024-03-22T13:46:52;5.20;;;1.80;;
60308;SDS011;50313;52.894;6.492;2024-03-22T13:49:19;8.13;;;2.40;;
60308;SDS011;50313;52.894;6.492;2024-03-22T13:51:48;5.40;;;2.65;;
60308;SDS011;50313;52.894;6.492;2024-03-22T13:54:15;2.65;;;1.77;;
60308;SDS011;50313;52.894;6.492;2024-03-22T13:56:42;8.68;;;2.15;;
60308;SDS011;50313;52.894;6.492;2024-03-22T13:59:08;14.05;;;4.22;;
60308;SDS011;50313;52.894;6.492;2024-03-22T14:01:35;9.98;;;2.67;;
60308;SDS011;50313;52.894;6.492;2024-03-22T14:04:02;7.68;;;2.58;;
60308;SDS011;50313;52.894;6.492;2024-03-22T14:06:32;3.78;;;2.40;;
60308;SDS011;50313;52.894;6.492;2024-03-22T14:08:58;7.20;;;2.15;;
60308;SDS011;50313;52.894;6.492;2024-03-22T14:11:29;4.82;;;2.53;;
60308;SDS011;50313;52.894;6.492;2024-03-22T14:13:56;4.22;;;2.50;;
60308;SDS011;50313;52.894;6.492;2024-03-22T14:16:22;4.68;;;2.53;;
60308;SDS011;50313;52.894;6.492;2024-03-22T14:18:48;19.02;;;2.45;;
60308;SDS011;50313;52.894;6.492;2024-03-22T14:21:14;3.67;;;2.13;;
60308;SDS011;50313;52.894;6.492;2024-03-22T14:23:47;9.38;;;2.67;;
60308;SDS011;50313;52.894;6.492;2024-03-22T14:26:13;9.93;;;3.55;;
60308;SDS011;50313;52.894;6.492;2024-03-22T14:28:40;11.38;;;2.00;;
60308;SDS011;50313;52.894;6.492;2024-03-22T14:31:07;5.97;;;2.45;;
60308;SDS011;50313;52.894;6.492;2024-03-22T14:33:39;9.30;;;2.45;;
60308;SDS011;50313;52.894;6.492;2024-03-22T14:36:06;9.55;;;3.10;;
60308;SDS011;50313;52.894;6.492;2024-03-22T14:38:33;6.60;;;2.30;;
60308;SDS011;50313;52.894;6.492;2024-03-22T14:41:00;10.75;;;2.88;;